createdAt,value
2023-04-26T00:00:00.725Z,5.93
2023-04-26T00:02:27.167Z,5.90
2023-04-26T00:04:53.813Z,5.94
2023-04-26T00:07:20.292Z,5.89
2023-04-26T00:09:46.589Z,5.95
2023-04-26T00:12:12.939Z,5.97
2023-04-26T00:14:39.269Z,5.98
2023-04-26T00:17:05.594Z,6.09
2023-04-26T00:19:31.906Z,6.00
2023-04-26T00:21:58.205Z,5.94
2023-04-26T00:24:24.535Z,5.96
2023-04-26T00:26:50.841Z,5.92
2023-04-26T00:29:17.171Z,5.92
2023-04-26T00:31:43.526Z,5.90
2023-04-26T00:34:09.874Z,5.97
2023-04-26T00:36:36.204Z,5.87
2023-04-26T00:39:02.514Z,5.81
2023-04-26T00:41:28.831Z,5.77
2023-04-26T00:43:55.191Z,5.69
2023-04-26T00:46:21.536Z,5.72
2023-04-26T00:48:47.927Z,5.72
2023-04-26T00:51:14.259Z,5.79
2023-04-26T00:53:40.576Z,5.84
2023-04-26T00:56:06.951Z,5.92
2023-04-26T00:58:33.435Z,5.88
2023-04-26T01:00:59.805Z,5.94
2023-04-26T01:03:26.285Z,5.88
2023-04-26T01:05:52.712Z,5.90
2023-04-26T01:08:19.048Z,5.91
2023-04-26T01:10:45.373Z,5.90
2023-04-26T01:13:11.682Z,5.87
2023-04-26T01:15:38.008Z,5.79
2023-04-26T01:18:04.335Z,5.71
2023-04-26T01:20:30.644Z,5.72
2023-04-26T01:22:57.039Z,5.75
2023-04-26T01:25:23.372Z,5.76
2023-04-26T01:27:49.689Z,5.75
2023-04-26T01:30:16.020Z,5.74
2023-04-26T01:32:42.377Z,5.77
2023-04-26T01:35:08.728Z,5.62
2023-04-26T01:37:35.057Z,5.52
2023-04-26T01:40:01.401Z,5.55
2023-04-26T01:42:27.761Z,5.35
2023-04-26T01:44:54.063Z,5.28
2023-04-26T01:47:20.374Z,5.42
2023-04-26T01:49:46.686Z,5.43
2023-04-26T01:52:13.003Z,5.38
2023-04-26T01:54:39.303Z,5.32
2023-04-26T01:57:05.601Z,5.13
2023-04-26T01:59:31.932Z,4.97
2023-04-26T02:01:58.363Z,4.86
2023-04-26T02:04:24.696Z,4.73
2023-04-26T02:06:51.027Z,4.71
2023-04-26T02:09:17.329Z,4.74
2023-04-26T02:11:43.633Z,4.70
2023-04-26T02:14:09.941Z,4.66
2023-04-26T02:16:36.314Z,4.78
2023-04-26T02:19:02.741Z,4.77
2023-04-26T02:21:30.166Z,4.79
2023-04-26T02:23:56.475Z,4.81
2023-04-26T02:26:22.800Z,4.82
2023-04-26T02:28:49.117Z,4.88
2023-04-26T02:31:15.461Z,4.89
2023-04-26T02:33:41.820Z,4.79
2023-04-26T02:36:08.132Z,4.65
2023-04-26T02:38:34.446Z,4.55
2023-04-26T02:41:00.766Z,4.63
2023-04-26T02:43:27.095Z,4.71
2023-04-26T02:45:53.488Z,4.70
2023-04-26T02:48:19.817Z,4.68
2023-04-26T02:50:46.160Z,4.75
2023-04-26T02:53:12.483Z,4.73
2023-04-26T02:55:38.807Z,4.58
2023-04-26T02:58:05.125Z,4.41
2023-04-26T03:00:31.457Z,4.35
2023-04-26T03:02:57.932Z,4.40
2023-04-26T03:05:24.349Z,4.42
2023-04-26T03:07:50.654Z,4.47
2023-04-26T03:10:16.957Z,4.49
2023-04-26T03:12:43.294Z,4.51
2023-04-26T03:15:09.639Z,4.50
2023-04-26T03:17:35.997Z,4.36
2023-04-26T03:20:02.851Z,4.22
2023-04-26T03:22:29.308Z,4.20
2023-04-26T03:24:55.615Z,4.14
2023-04-26T03:27:21.949Z,4.09
2023-04-26T03:29:48.251Z,3.97
2023-04-26T03:32:14.614Z,3.87
2023-04-26T03:34:40.959Z,3.88
2023-04-26T03:37:07.256Z,3.85
2023-04-26T03:39:33.581Z,3.82
2023-04-26T03:41:59.908Z,3.78
2023-04-26T03:44:26.320Z,3.78
2023-04-26T03:46:52.622Z,3.81
2023-04-26T03:49:18.932Z,3.86
2023-04-26T03:51:45.239Z,3.88
2023-04-26T03:54:11.575Z,3.86
2023-04-26T03:56:37.907Z,3.82
2023-04-26T03:59:04.230Z,3.79
2023-04-26T04:01:30.531Z,3.71
2023-04-26T04:03:57.011Z,3.70
2023-04-26T04:06:23.646Z,3.69
2023-04-26T04:08:50.191Z,3.71
2023-04-26T04:11:16.962Z,3.86
2023-04-26T04:13:43.298Z,4.01
2023-04-26T04:16:09.648Z,4.09
2023-04-26T04:18:35.978Z,4.09
2023-04-26T04:21:02.277Z,4.00
2023-04-26T04:23:28.612Z,3.93
2023-04-26T04:25:54.951Z,3.89
2023-04-26T04:28:21.297Z,3.83
2023-04-26T04:30:47.693Z,3.83
2023-04-26T04:33:14.101Z,3.95
2023-04-26T04:35:40.430Z,4.14
2023-04-26T04:38:06.760Z,4.48
2023-04-26T04:40:33.088Z,4.81
2023-04-26T04:42:59.395Z,5.04
2023-04-26T04:45:25.691Z,5.30
2023-04-26T04:47:52.025Z,5.48
2023-04-26T04:50:18.370Z,5.66
2023-04-26T04:52:44.693Z,5.78
2023-04-26T04:55:11.019Z,5.88
2023-04-26T04:57:37.340Z,5.89
2023-04-26T05:00:03.652Z,5.97
2023-04-26T05:02:30.154Z,6.09
2023-04-26T05:04:56.543Z,6.13
2023-04-26T05:07:24.416Z,6.18
2023-04-26T05:09:50.953Z,6.23
2023-04-26T05:12:17.278Z,6.26
2023-04-26T05:14:43.608Z,6.29
2023-04-26T05:17:09.934Z,6.34
2023-04-26T05:19:36.480Z,6.40
2023-04-26T05:22:02.831Z,6.48
2023-04-26T05:24:29.145Z,6.44
2023-04-26T05:26:55.441Z,6.28
2023-04-26T05:29:21.814Z,6.10
2023-04-26T05:31:48.143Z,6.19
2023-04-26T05:34:14.491Z,6.31
2023-04-26T05:36:40.811Z,6.35
2023-04-26T05:39:07.130Z,6.46
2023-04-26T05:41:33.461Z,6.54
2023-04-26T05:43:59.766Z,6.48
2023-04-26T05:46:26.165Z,6.46
2023-04-26T05:48:52.507Z,6.31
2023-04-26T05:51:18.835Z,6.23
2023-04-26T05:53:45.159Z,6.10
2023-04-26T05:56:11.466Z,6.10
2023-04-26T05:58:37.788Z,6.19
2023-04-26T06:01:04.097Z,6.24
2023-04-26T06:03:30.668Z,6.24
2023-04-26T06:05:57.292Z,6.29
2023-04-26T06:08:23.640Z,6.35
2023-04-26T06:10:49.976Z,6.37
2023-04-26T06:13:16.302Z,6.33
2023-04-26T06:15:42.615Z,6.32
2023-04-26T06:18:09.053Z,6.33
2023-04-26T06:20:35.400Z,6.33
2023-04-26T06:23:01.735Z,6.34
2023-04-26T06:25:28.054Z,6.37
2023-04-26T06:27:54.368Z,6.39
2023-04-26T06:30:20.697Z,6.41
2023-04-26T06:32:47.113Z,6.47
2023-04-26T06:35:13.468Z,6.55
2023-04-26T06:37:39.764Z,6.64
2023-04-26T06:40:06.083Z,6.73
2023-04-26T06:42:32.432Z,6.73
2023-04-26T06:44:58.754Z,6.81
2023-04-26T06:47:25.063Z,6.83
2023-04-26T06:49:51.400Z,6.94
2023-04-26T06:52:18.674Z,6.92
2023-04-26T06:54:56.121Z,7.00
2023-04-26T06:57:23.617Z,7.15
2023-04-26T06:59:50.127Z,7.20
2023-04-26T07:02:16.471Z,7.31
2023-04-26T07:04:43.097Z,7.36
2023-04-26T07:07:11.117Z,7.25
2023-04-26T07:09:39.268Z,7.25
2023-04-26T07:12:05.582Z,7.29
2023-04-26T07:14:31.931Z,7.29
2023-04-26T07:16:58.244Z,7.33
2023-04-26T07:19:24.600Z,7.19
2023-04-26T07:21:50.933Z,7.21
2023-04-26T07:24:17.258Z,7.40
2023-04-26T07:26:43.597Z,7.38
2023-04-26T07:29:09.920Z,7.29
2023-04-26T07:31:36.244Z,7.44
2023-04-26T07:34:02.573Z,7.52
2023-04-26T07:36:28.898Z,7.73
2023-04-26T07:38:55.211Z,7.66
2023-04-26T07:41:21.532Z,7.87
2023-04-26T07:43:47.851Z,7.92
2023-04-26T07:46:14.241Z,7.97
2023-04-26T07:48:40.630Z,7.98
2023-04-26T07:51:06.943Z,8.21
2023-04-26T07:53:33.255Z,8.20
2023-04-26T07:55:59.602Z,8.15
2023-04-26T07:58:25.949Z,8.31
2023-04-26T08:00:52.252Z,8.32
2023-04-26T08:03:18.710Z,8.48
2023-04-26T08:05:45.639Z,8.49
2023-04-26T08:08:12.055Z,8.59
2023-04-26T08:10:38.362Z,8.63
2023-04-26T08:13:04.717Z,8.78
2023-04-26T08:15:31.042Z,8.74
2023-04-26T08:17:57.467Z,8.84
2023-04-26T08:20:23.879Z,8.84
2023-04-26T08:22:50.246Z,8.91
2023-04-26T08:25:16.578Z,9.02
2023-04-26T08:27:42.895Z,9.01
2023-04-26T08:30:09.216Z,9.12
2023-04-26T08:32:35.571Z,9.12
2023-04-26T08:35:01.969Z,9.21
2023-04-26T08:37:29.403Z,9.27
2023-04-26T08:39:55.880Z,9.47
2023-04-26T08:42:22.188Z,9.56
2023-04-26T08:44:48.516Z,9.57
2023-04-26T08:47:14.839Z,9.58
2023-04-26T08:49:41.173Z,9.70
2023-04-26T08:52:07.497Z,9.86
2023-04-26T08:54:33.823Z,9.89
2023-04-26T08:57:00.144Z,9.91
2023-04-26T08:59:26.439Z,9.96
2023-04-26T09:01:52.815Z,10.14
2023-04-26T09:04:19.363Z,10.21
2023-04-26T09:06:45.866Z,10.35
2023-04-26T09:09:12.185Z,10.47
2023-04-26T09:11:38.487Z,10.53
2023-04-26T09:14:04.798Z,10.66
2023-04-26T09:16:31.133Z,10.76
2023-04-26T09:18:57.539Z,10.71
2023-04-26T09:21:23.844Z,10.79
2023-04-26T09:23:50.172Z,10.84
2023-04-26T09:26:16.500Z,10.89
2023-04-26T09:28:42.824Z,10.97
2023-04-26T09:31:09.725Z,11.09
2023-04-26T09:33:36.065Z,11.24
2023-04-26T09:36:02.363Z,11.54
2023-04-26T09:38:28.666Z,11.47
2023-04-26T09:40:55.020Z,11.50
2023-04-26T09:43:21.412Z,11.55
2023-04-26T09:45:47.760Z,11.58
2023-04-26T09:48:14.069Z,11.77
2023-04-26T09:50:40.377Z,11.73
2023-04-26T09:53:06.705Z,11.80
2023-04-26T09:55:35.260Z,11.91
2023-04-26T09:58:02.096Z,11.94
2023-04-26T10:00:28.447Z,12.09
2023-04-26T10:02:54.844Z,12.14
2023-04-26T10:05:21.236Z,12.21
2023-04-26T10:07:47.562Z,12.14
2023-04-26T10:10:14.008Z,12.23
2023-04-26T10:12:40.344Z,12.40
2023-04-26T10:15:06.656Z,12.63
2023-04-26T10:17:32.994Z,12.63
2023-04-26T10:19:59.362Z,12.63
2023-04-26T10:22:25.665Z,12.79
2023-04-26T10:24:51.990Z,12.67
2023-04-26T10:27:18.316Z,12.79
2023-04-26T10:29:44.641Z,13.04
2023-04-26T10:32:11.011Z,12.83
2023-04-26T10:34:37.333Z,13.02
2023-04-26T10:37:03.653Z,12.97
2023-04-26T10:39:29.964Z,13.13
2023-04-26T10:41:56.289Z,12.99
2023-04-26T10:44:22.598Z,12.82
2023-04-26T10:46:48.928Z,12.90
2023-04-26T10:49:15.248Z,13.06
2023-04-26T10:51:41.565Z,13.19
2023-04-26T10:54:07.885Z,13.33
2023-04-26T10:56:34.213Z,13.50
2023-04-26T10:59:00.554Z,13.59
2023-04-26T11:01:26.887Z,13.55
2023-04-26T11:03:53.489Z,13.74
2023-04-26T11:06:20.093Z,13.82
2023-04-26T11:08:46.413Z,13.63
2023-04-26T11:11:12.740Z,13.62
2023-04-26T11:13:39.079Z,13.68
2023-04-26T11:16:05.480Z,13.77
2023-04-26T11:18:31.878Z,13.62
2023-04-26T11:20:58.221Z,13.70
2023-04-26T11:23:24.673Z,13.78
2023-04-26T11:25:50.987Z,13.91
2023-04-26T11:28:17.303Z,14.01
2023-04-26T11:30:43.604Z,14.17
2023-04-26T11:33:09.930Z,14.29
2023-04-26T11:35:36.281Z,14.43
2023-04-26T11:38:02.609Z,14.51
2023-04-26T11:40:29.004Z,14.32
2023-04-26T11:42:55.325Z,14.29
2023-04-26T11:45:21.663Z,14.36
2023-04-26T11:47:48.042Z,14.54
2023-04-26T11:50:14.362Z,14.62
2023-04-26T11:52:40.662Z,14.81
2023-04-26T11:55:06.970Z,14.69
2023-04-26T11:57:33.368Z,14.69
2023-04-26T11:59:59.682Z,14.64
2023-04-26T12:02:26.153Z,14.66
2023-04-26T12:04:52.718Z,14.92
2023-04-26T12:07:19.144Z,14.75
2023-04-26T12:09:45.469Z,14.94
2023-04-26T12:12:11.807Z,14.98
2023-04-26T12:14:38.137Z,14.87
2023-04-26T12:17:04.532Z,14.79
2023-04-26T12:19:30.911Z,14.96
2023-04-26T12:21:57.295Z,14.78
2023-04-26T12:24:23.598Z,14.80
2023-04-26T12:26:49.912Z,14.67
2023-04-26T12:29:16.219Z,14.72
2023-04-26T12:31:42.568Z,14.72
2023-04-26T12:34:08.929Z,14.65
2023-04-26T12:36:35.273Z,14.61
2023-04-26T12:39:01.611Z,14.72
2023-04-26T12:41:27.947Z,14.87
2023-04-26T12:43:54.254Z,14.90
2023-04-26T12:46:20.619Z,14.73
2023-04-26T12:48:46.969Z,14.71
2023-04-26T12:51:13.289Z,14.61
2023-04-26T12:53:39.609Z,14.60
2023-04-26T12:56:06.128Z,14.68
2023-04-26T12:58:32.450Z,14.74
2023-04-26T13:00:58.785Z,14.86
2023-04-26T13:03:25.236Z,14.94
2023-04-26T13:05:51.642Z,15.26
2023-04-26T13:08:18.015Z,15.55
2023-04-26T13:10:44.333Z,15.79
2023-04-26T13:13:10.673Z,15.81
2023-04-26T13:15:37.006Z,15.90
2023-04-26T13:18:03.362Z,15.91
2023-04-26T13:20:30.950Z,15.80
2023-04-26T13:22:57.425Z,16.03
2023-04-26T13:25:23.756Z,16.27
2023-04-26T13:27:50.069Z,16.32
2023-04-26T13:30:16.372Z,16.25
2023-04-26T13:32:42.714Z,16.03
2023-04-26T13:35:09.167Z,16.18
2023-04-26T13:37:35.505Z,16.34
2023-04-26T13:40:01.852Z,16.32
2023-04-26T13:42:28.187Z,16.57
2023-04-26T13:44:54.539Z,16.62
2023-04-26T13:47:20.923Z,16.38
2023-04-26T13:49:47.322Z,16.06
2023-04-26T13:52:13.660Z,15.98
2023-04-26T13:54:40.000Z,15.77
2023-04-26T13:57:06.348Z,15.87
2023-04-26T13:59:32.665Z,16.06
2023-04-26T14:01:59.330Z,16.34
2023-04-26T14:04:26.094Z,16.65
2023-04-26T14:06:52.569Z,16.80
2023-04-26T14:09:18.892Z,17.15
2023-04-26T14:11:49.327Z,17.32
2023-04-26T14:14:20.465Z,17.14
2023-04-26T14:16:46.798Z,17.05
2023-04-26T14:19:13.125Z,17.17
2023-04-26T14:21:39.438Z,17.21
2023-04-26T14:24:05.758Z,17.02
2023-04-26T14:26:32.088Z,16.97
2023-04-26T14:28:58.398Z,16.81
2023-04-26T14:31:24.848Z,16.60
2023-04-26T14:33:51.197Z,16.52
2023-04-26T14:36:17.503Z,16.48
2023-04-26T14:38:43.802Z,16.40
2023-04-26T14:41:10.144Z,16.41
2023-04-26T14:43:36.480Z,16.62
2023-04-26T14:46:02.872Z,16.72
2023-04-26T14:48:29.220Z,16.64
2023-04-26T14:50:55.526Z,16.35
2023-04-26T14:53:21.849Z,16.46
2023-04-26T14:55:48.169Z,16.47
2023-04-26T14:58:14.621Z,16.51
2023-04-26T15:00:41.001Z,16.53
2023-04-26T15:03:07.446Z,16.45
2023-04-26T15:05:33.864Z,16.57
2023-04-26T15:08:00.328Z,16.67
2023-04-26T15:10:26.659Z,16.69
2023-04-26T15:12:52.981Z,16.72
2023-04-26T15:15:19.316Z,16.89
2023-04-26T15:17:45.679Z,16.88
2023-04-26T15:20:12.042Z,16.66
2023-04-26T15:22:39.025Z,16.73
2023-04-26T15:25:05.504Z,16.55
2023-04-26T15:27:31.809Z,16.65
2023-04-26T15:29:58.134Z,16.50
2023-04-26T15:32:24.496Z,16.55
2023-04-26T15:34:50.871Z,16.44
2023-04-26T15:37:17.211Z,16.32
2023-04-26T15:39:43.547Z,16.35
2023-04-26T15:42:09.929Z,16.47
2023-04-26T15:44:36.256Z,16.43
2023-04-26T15:47:02.618Z,16.45
2023-04-26T15:49:28.979Z,16.53
2023-04-26T15:51:55.309Z,16.52
2023-04-26T15:54:21.650Z,16.45
2023-04-26T15:56:48.007Z,16.53
2023-04-26T15:59:14.334Z,16.48
2023-04-26T16:01:40.668Z,16.43
2023-04-26T16:04:07.163Z,16.29
2023-04-26T16:06:33.672Z,16.29
2023-04-26T16:09:00.006Z,16.28
2023-04-26T16:11:26.378Z,16.17
2023-04-26T16:13:52.911Z,16.36
2023-04-26T16:16:19.324Z,16.31
2023-04-26T16:18:45.718Z,16.19
2023-04-26T16:21:12.020Z,16.08
2023-04-26T16:23:38.322Z,15.85
2023-04-26T16:26:04.646Z,15.89
2023-04-26T16:28:30.948Z,15.86
2023-04-26T16:30:57.295Z,15.88
2023-04-26T16:33:23.993Z,15.84
2023-04-26T16:35:50.647Z,15.75
2023-04-26T16:38:16.970Z,15.58
2023-04-26T16:40:43.301Z,15.58
2023-04-26T16:43:09.637Z,15.55
2023-04-26T16:45:35.941Z,15.49
2023-04-26T16:48:02.267Z,15.55
2023-04-26T16:50:28.611Z,15.58
2023-04-26T16:52:54.945Z,15.54
2023-04-26T16:55:21.260Z,15.51
2023-04-26T16:57:47.571Z,15.52
2023-04-26T17:00:13.895Z,15.49
2023-04-26T17:02:40.423Z,15.53
2023-04-26T17:05:07.080Z,15.47
2023-04-26T17:07:33.461Z,15.48
2023-04-26T17:09:59.780Z,15.51
2023-04-26T17:12:26.104Z,15.57
2023-04-26T17:14:52.407Z,15.46
2023-04-26T17:17:18.726Z,15.38
2023-04-26T17:19:45.036Z,15.37
2023-04-26T17:22:11.365Z,15.37
2023-04-26T17:24:37.672Z,15.21
2023-04-26T17:27:03.982Z,15.23
2023-04-26T17:29:30.310Z,15.14
2023-04-26T17:31:56.694Z,15.18
2023-04-26T17:34:23.075Z,15.03
2023-04-26T17:36:49.434Z,15.08
2023-04-26T17:39:15.747Z,15.02
2023-04-26T17:41:42.065Z,14.94
2023-04-26T17:44:08.373Z,14.85
2023-04-26T17:46:34.706Z,14.77
2023-04-26T17:49:01.039Z,14.76
2023-04-26T17:51:27.407Z,14.75
2023-04-26T17:53:53.740Z,14.73
2023-04-26T17:56:20.101Z,14.70
2023-04-26T17:58:46.415Z,14.66
2023-04-26T18:01:12.749Z,14.61
2023-04-26T18:03:39.274Z,14.65
2023-04-26T18:06:05.758Z,14.59
2023-04-26T18:08:32.094Z,14.64
2023-04-26T18:10:58.419Z,14.66
2023-04-26T18:13:24.744Z,14.72
2023-04-26T18:15:51.067Z,14.66
2023-04-26T18:18:17.537Z,14.62
2023-04-26T18:20:43.981Z,14.65
2023-04-26T18:23:10.315Z,14.64
2023-04-26T18:25:36.653Z,14.71
2023-04-26T18:28:02.975Z,14.65
2023-04-26T18:30:29.288Z,14.45
2023-04-26T18:32:55.678Z,14.38
2023-04-26T18:35:22.073Z,14.25
2023-04-26T18:37:48.427Z,14.22
2023-04-26T18:40:14.753Z,14.11
2023-04-26T18:42:41.089Z,14.06
2023-04-26T18:45:07.417Z,14.02
2023-04-26T18:47:33.753Z,13.95
2023-04-26T18:50:00.189Z,13.96
2023-04-26T18:52:26.532Z,13.97
2023-04-26T18:54:52.868Z,13.91
2023-04-26T18:57:19.172Z,13.88
2023-04-26T18:59:45.497Z,13.83
2023-04-26T19:02:11.925Z,13.77
2023-04-26T19:04:38.429Z,13.70
2023-04-26T19:07:04.894Z,13.69
2023-04-26T19:09:35.133Z,13.63
2023-04-26T19:12:09.495Z,13.62
2023-04-26T19:14:35.808Z,13.64
2023-04-26T19:17:02.148Z,13.57
2023-04-26T19:19:28.461Z,13.55
2023-04-26T19:21:54.771Z,13.60
2023-04-26T19:24:21.085Z,13.57
2023-04-26T19:26:47.397Z,13.33
2023-04-26T19:29:13.697Z,13.35
2023-04-26T19:31:40.062Z,13.37
2023-04-26T19:34:06.406Z,13.37
2023-04-26T19:36:32.746Z,13.34
2023-04-26T19:38:59.082Z,13.31
2023-04-26T19:41:25.389Z,13.30
2023-04-26T19:43:51.765Z,13.25
2023-04-26T19:46:18.174Z,13.17
2023-04-26T19:48:44.586Z,13.13
2023-04-26T19:51:10.921Z,13.14
2023-04-26T19:53:37.233Z,13.16
2023-04-26T19:56:03.568Z,13.19
2023-04-26T19:58:29.945Z,13.19
2023-04-26T20:00:56.299Z,13.17
2023-04-26T20:03:22.748Z,13.12
2023-04-26T20:05:49.223Z,13.14
2023-04-26T20:08:15.534Z,13.16
2023-04-26T20:10:41.867Z,13.11
2023-04-26T20:13:08.192Z,13.08
2023-04-26T20:15:34.515Z,13.05
2023-04-26T20:18:00.876Z,13.04
2023-04-26T20:20:27.245Z,13.02
2023-04-26T20:22:53.575Z,13.05
2023-04-26T20:25:20.035Z,13.07
2023-04-26T20:27:46.438Z,13.06
2023-04-26T20:30:12.753Z,13.05
2023-04-26T20:32:39.109Z,13.01
2023-04-26T20:35:05.458Z,12.99
2023-04-26T20:37:31.782Z,12.99
2023-04-26T20:39:58.103Z,12.96
2023-04-26T20:42:24.414Z,12.95
2023-04-26T20:44:50.745Z,12.93
2023-04-26T20:47:17.080Z,12.86
2023-04-26T20:49:43.512Z,12.87
2023-04-26T20:52:09.855Z,12.85
2023-04-26T20:54:36.158Z,12.83
2023-04-26T20:57:02.476Z,12.85
2023-04-26T20:59:28.787Z,12.77
2023-04-26T21:01:55.113Z,12.77
2023-04-26T21:04:21.695Z,12.80
2023-04-26T21:06:48.349Z,12.81
2023-04-26T21:09:14.671Z,12.76
2023-04-26T21:11:40.981Z,12.77
2023-04-26T21:14:07.291Z,12.72
2023-04-26T21:16:33.594Z,12.69
2023-04-26T21:18:59.919Z,12.64
2023-04-26T21:21:28.103Z,12.68
2023-04-26T21:23:54.646Z,12.69
2023-04-26T21:26:20.968Z,12.66
2023-04-26T21:28:47.264Z,12.62
2023-04-26T21:31:13.595Z,12.58
2023-04-26T21:33:39.970Z,12.52
2023-04-26T21:36:06.304Z,12.55
2023-04-26T21:38:32.622Z,12.53
2023-04-26T21:40:58.948Z,12.50
2023-04-26T21:43:25.281Z,12.54
2023-04-26T21:45:51.594Z,12.62
2023-04-26T21:48:17.907Z,12.55
2023-04-26T21:50:44.216Z,12.49
2023-04-26T21:53:10.517Z,12.40
2023-04-26T21:55:36.873Z,12.37
2023-04-26T21:58:03.223Z,12.17
2023-04-26T22:00:29.570Z,12.09
2023-04-26T22:02:56.058Z,12.07
2023-04-26T22:05:22.477Z,12.15
2023-04-26T22:07:48.777Z,12.16
2023-04-26T22:10:15.095Z,12.17
2023-04-26T22:12:41.421Z,12.12
2023-04-26T22:15:07.737Z,12.03
2023-04-26T22:17:34.128Z,11.90
2023-04-26T22:20:00.475Z,11.82
2023-04-26T22:22:26.798Z,11.80
2023-04-26T22:24:53.135Z,11.76
2023-04-26T22:27:19.444Z,11.69
2023-04-26T22:29:45.758Z,11.68
2023-04-26T22:32:12.200Z,11.58
2023-04-26T22:34:38.591Z,11.54
2023-04-26T22:37:19.778Z,11.28
2023-04-26T22:39:46.976Z,11.12
2023-04-26T22:42:13.284Z,10.99
2023-04-26T22:44:39.591Z,10.82
2023-04-26T22:47:05.900Z,10.66
2023-04-26T22:49:32.229Z,10.66
2023-04-26T22:52:07.773Z,10.49
2023-04-26T22:54:38.270Z,10.55
2023-04-26T22:57:04.588Z,10.57
2023-04-26T22:59:30.899Z,10.64
2023-04-26T23:01:57.233Z,10.70
2023-04-26T23:04:23.600Z,10.77
2023-04-26T23:06:49.929Z,10.79
2023-04-26T23:09:16.264Z,10.79
2023-04-26T23:11:42.592Z,10.85
2023-04-26T23:14:08.909Z,10.85
2023-04-26T23:16:35.305Z,10.82
2023-04-26T23:19:01.652Z,10.91
2023-04-26T23:21:27.975Z,10.93
2023-04-26T23:23:54.283Z,10.76
2023-04-26T23:26:20.583Z,10.48
2023-04-26T23:28:46.901Z,10.25
2023-04-26T23:31:13.221Z,10.19
2023-04-26T23:33:39.533Z,10.04
2023-04-26T23:36:05.855Z,9.96
2023-04-26T23:38:32.197Z,9.88
2023-04-26T23:40:58.506Z,9.89
2023-04-26T23:43:24.817Z,9.94
2023-04-26T23:45:51.392Z,9.99
2023-04-26T23:48:17.756Z,9.97
2023-04-26T23:50:44.085Z,9.75
2023-04-26T23:53:10.398Z,9.56
2023-04-26T23:55:36.717Z,9.58
2023-04-26T23:58:03.022Z,9.75
